sensor_id;sensor_type;location;lat;lon;timestamp;P1;durP1;ratioP1;P2;durP2;ratioP2
27402;SDS011;14862;49.494;8.530;2024-01-11T00:00:00;45.53;;;22.50;;
27402;SDS011;14862;49.494;8.530;2024-01-11T00:02:25;42.77;;;21.33;;
27402;SDS011;14862;49.494;8.530;2024-01-11T00:04:51;49.72;;;23.27;;
27402;SDS011;14862;49.494;8.530;2024-01-11T00:07:16;49.97;;;23.00;;
27402;SDS011;14862;49.494;8.530;2024-01-11T00:09:41;42.53;;;20.77;;
27402;SDS011;14862;49.494;8.530;2024-01-11T00:12:07;46.67;;;22.13;;
27402;SDS011;14862;49.494;8.530;2024-01-11T00:14:32;52.08;;;23.30;;
27402;SDS011;14862;49.494;8.530;2024-01-11T00:16:58;48.70;;;21.55;;
27402;SDS011;14862;49.494;8.530;2024-01-11T00:19:23;42.60;;;21.02;;
27402;SDS011;14862;49.494;8.530;2024-01-11T00:21:49;48.03;;;23.00;;
27402;SDS011;14862;49.494;8.530;2024-01-11T00:24:14;47.33;;;20.90;;
27402;SDS011;14862;49.494;8.530;2024-01-11T00:26:39;44.10;;;22.10;;
27402;SDS011;14862;49.494;8.530;2024-01-11T00:29:04;48.63;;;22.50;;
27402;SDS011;14862;49.494;8.530;2024-01-11T00:31:29;45.70;;;23.48;;
27402;SDS011;14862;49.494;8.530;2024-01-11T00:33:55;49.05;;;23.45;;
27402;SDS011;14862;49.494;8.530;2024-01-11T00:36:20;46.22;;;22.83;;
27402;SDS011;14862;49.494;8.530;2024-01-11T00:38:45;44.65;;;23.58;;
27402;SDS011;14862;49.494;8.530;2024-01-11T00:41:11;49.63;;;21.98;;
27402;SDS011;14862;49.494;8.530;2024-01-11T00:43:36;46.95;;;22.42;;
27402;SDS011;14862;49.494;8.530;2024-01-11T00:46:01;47.38;;;22.50;;
27402;SDS011;14862;49.494;8.530;2024-01-11T00:48:26;46.45;;;23.40;;
27402;SDS011;14862;49.494;8.530;2024-01-11T00:50:51;52.93;;;22.97;;
27402;SDS011;14862;49.494;8.530;2024-01-11T00:53:17;46.30;;;22.10;;
27402;SDS011;14862;49.494;8.530;2024-01-11T00:55:42;45.95;;;21.98;;
27402;SDS011;14862;49.494;8.530;2024-01-11T00:58:08;50.00;;;22.27;;
27402;SDS011;14862;49.494;8.530;2024-01-11T01:00:33;46.47;;;21.77;;
27402;SDS011;14862;49.494;8.530;2024-01-11T01:02:58;49.10;;;22.90;;
27402;SDS011;14862;49.494;8.530;2024-01-11T01:05:24;48.90;;;21.35;;
27402;SDS011;14862;49.494;8.530;2024-01-11T01:07:50;41.57;;;20.13;;
27402;SDS011;14862;49.494;8.530;2024-01-11T01:10:15;45.83;;;20.40;;
27402;SDS011;14862;49.494;8.530;2024-01-11T01:12:40;46.53;;;20.95;;
27402;SDS011;14862;49.494;8.530;2024-01-11T01:15:05;48.28;;;21.30;;
27402;SDS011;14862;49.494;8.530;2024-01-11T01:17:31;51.67;;;21.70;;
27402;SDS011;14862;49.494;8.530;2024-01-11T01:19:56;45.35;;;20.85;;
27402;SDS011;14862;49.494;8.530;2024-01-11T01:22:22;48.42;;;21.33;;
27402;SDS011;14862;49.494;8.530;2024-01-11T01:24:47;46.40;;;20.30;;
27402;SDS011;14862;49.494;8.530;2024-01-11T01:27:13;48.67;;;20.65;;
27402;SDS011;14862;49.494;8.530;2024-01-11T01:29:38;39.95;;;20.05;;
27402;SDS011;14862;49.494;8.530;2024-01-11T01:32:03;44.77;;;20.30;;
27402;SDS011;14862;49.494;8.530;2024-01-11T01:34:28;42.70;;;19.88;;
27402;SDS011;14862;49.494;8.530;2024-01-11T01:36:54;45.83;;;21.77;;
27402;SDS011;14862;49.494;8.530;2024-01-11T01:39:19;37.70;;;19.87;;
27402;SDS011;14862;49.494;8.530;2024-01-11T01:41:44;46.20;;;20.43;;
27402;SDS011;14862;49.494;8.530;2024-01-11T01:44:09;43.17;;;20.27;;
27402;SDS011;14862;49.494;8.530;2024-01-11T01:46:34;42.03;;;19.77;;
27402;SDS011;14862;49.494;8.530;2024-01-11T01:49:00;43.75;;;20.90;;
27402;SDS011;14862;49.494;8.530;2024-01-11T01:51:26;36.70;;;18.95;;
27402;SDS011;14862;49.494;8.530;2024-01-11T01:53:52;41.75;;;20.40;;
27402;SDS011;14862;49.494;8.530;2024-01-11T01:56:19;40.58;;;19.85;;
27402;SDS011;14862;49.494;8.530;2024-01-11T01:58:44;41.85;;;19.20;;
27402;SDS011;14862;49.494;8.530;2024-01-11T02:01:10;45.63;;;20.92;;
27402;SDS011;14862;49.494;8.530;2024-01-11T02:03:35;41.75;;;20.27;;
27402;SDS011;14862;49.494;8.530;2024-01-11T02:06:00;41.67;;;19.92;;
27402;SDS011;14862;49.494;8.530;2024-01-11T02:08:26;44.38;;;20.85;;
27402;SDS011;14862;49.494;8.530;2024-01-11T02:10:52;41.90;;;19.85;;
27402;SDS011;14862;49.494;8.530;2024-01-11T02:13:17;45.53;;;22.35;;
27402;SDS011;14862;49.494;8.530;2024-01-11T02:15:43;45.33;;;20.48;;
27402;SDS011;14862;49.494;8.530;2024-01-11T02:18:09;44.67;;;20.52;;
27402;SDS011;14862;49.494;8.530;2024-01-11T02:20:35;43.78;;;21.83;;
27402;SDS011;14862;49.494;8.530;2024-01-11T02:23:08;38.55;;;18.70;;
27402;SDS011;14862;49.494;8.530;2024-01-11T02:25:35;45.20;;;20.55;;
27402;SDS011;14862;49.494;8.530;2024-01-11T02:28:01;46.85;;;22.05;;
27402;SDS011;14862;49.494;8.530;2024-01-11T02:30:26;51.22;;;21.98;;
27402;SDS011;14862;49.494;8.530;2024-01-11T02:32:51;44.35;;;21.60;;
27402;SDS011;14862;49.494;8.530;2024-01-11T02:35:16;44.22;;;20.70;;
27402;SDS011;14862;49.494;8.530;2024-01-11T02:37:43;49.58;;;23.20;;
27402;SDS011;14862;49.494;8.530;2024-01-11T02:40:08;48.15;;;22.50;;
27402;SDS011;14862;49.494;8.530;2024-01-11T02:42:34;45.85;;;19.90;;
27402;SDS011;14862;49.494;8.530;2024-01-11T02:44:59;46.17;;;21.58;;
27402;SDS011;14862;49.494;8.530;2024-01-11T02:47:25;44.35;;;22.05;;
27402;SDS011;14862;49.494;8.530;2024-01-11T02:49:50;49.88;;;23.63;;
27402;SDS011;14862;49.494;8.530;2024-01-11T02:52:16;47.65;;;22.77;;
27402;SDS011;14862;49.494;8.530;2024-01-11T02:54:41;53.55;;;22.60;;
27402;SDS011;14862;49.494;8.530;2024-01-11T02:57:06;43.95;;;21.98;;
27402;SDS011;14862;49.494;8.530;2024-01-11T02:59:32;46.13;;;20.73;;
27402;SDS011;14862;49.494;8.530;2024-01-11T03:01:57;49.40;;;23.25;;
27402;SDS011;14862;49.494;8.530;2024-01-11T03:04:22;44.95;;;21.55;;
27402;SDS011;14862;49.494;8.530;2024-01-11T03:06:48;49.47;;;22.67;;
27402;SDS011;14862;49.494;8.530;2024-01-11T03:09:13;55.63;;;22.60;;
27402;SDS011;14862;49.494;8.530;2024-01-11T03:11:38;46.03;;;22.00;;
27402;SDS011;14862;49.494;8.530;2024-01-11T03:14:03;52.03;;;22.65;;
27402;SDS011;14862;49.494;8.530;2024-01-11T03:16:29;52.42;;;22.60;;
27402;SDS011;14862;49.494;8.530;2024-01-11T03:18:54;48.25;;;22.80;;
27402;SDS011;14862;49.494;8.530;2024-01-11T03:21:19;50.95;;;22.38;;
27402;SDS011;14862;49.494;8.530;2024-01-11T03:23:45;50.58;;;22.42;;
27402;SDS011;14862;49.494;8.530;2024-01-11T03:26:14;47.90;;;21.40;;
27402;SDS011;14862;49.494;8.530;2024-01-11T03:28:39;48.97;;;24.13;;
27402;SDS011;14862;49.494;8.530;2024-01-11T03:31:04;51.60;;;22.67;;
27402;SDS011;14862;49.494;8.530;2024-01-11T03:33:29;53.28;;;23.60;;
27402;SDS011;14862;49.494;8.530;2024-01-11T03:35:55;54.60;;;24.38;;
27402;SDS011;14862;49.494;8.530;2024-01-11T03:38:20;48.60;;;23.60;;
27402;SDS011;14862;49.494;8.530;2024-01-11T03:40:46;52.80;;;24.07;;
27402;SDS011;14862;49.494;8.530;2024-01-11T03:43:11;48.70;;;22.20;;
27402;SDS011;14862;49.494;8.530;2024-01-11T03:45:36;55.63;;;24.47;;
27402;SDS011;14862;49.494;8.530;2024-01-11T03:48:01;43.63;;;21.35;;
27402;SDS011;14862;49.494;8.530;2024-01-11T03:50:26;46.28;;;22.23;;
27402;SDS011;14862;49.494;8.530;2024-01-11T03:52:51;49.22;;;21.55;;
27402;SDS011;14862;49.494;8.530;2024-01-11T03:55:17;45.80;;;21.73;;
27402;SDS011;14862;49.494;8.530;2024-01-11T03:57:42;50.80;;;23.85;;
27402;SDS011;14862;49.494;8.530;2024-01-11T04:00:09;49.47;;;23.52;;
27402;SDS011;14862;49.494;8.530;2024-01-11T04:02:34;46.55;;;22.38;;
27402;SDS011;14862;49.494;8.530;2024-01-11T04:04:59;49.72;;;21.48;;
27402;SDS011;14862;49.494;8.530;2024-01-11T04:07:26;50.05;;;22.88;;
27402;SDS011;14862;49.494;8.530;2024-01-11T04:09:51;52.17;;;23.77;;
27402;SDS011;14862;49.494;8.530;2024-01-11T04:12:16;46.97;;;23.43;;
27402;SDS011;14862;49.494;8.530;2024-01-11T04:14:41;54.10;;;23.50;;
27402;SDS011;14862;49.494;8.530;2024-01-11T04:17:06;47.00;;;22.23;;
27402;SDS011;14862;49.494;8.530;2024-01-11T04:19:32;52.25;;;24.02;;
27402;SDS011;14862;49.494;8.530;2024-01-11T04:21:57;51.85;;;23.88;;
27402;SDS011;14862;49.494;8.530;2024-01-11T04:24:22;49.90;;;22.73;;
27402;SDS011;14862;49.494;8.530;2024-01-11T04:26:48;56.13;;;24.85;;
27402;SDS011;14862;49.494;8.530;2024-01-11T04:29:13;54.70;;;24.10;;
27402;SDS011;14862;49.494;8.530;2024-01-11T04:31:38;57.72;;;25.67;;
27402;SDS011;14862;49.494;8.530;2024-01-11T04:34:03;54.53;;;25.17;;
27402;SDS011;14862;49.494;8.530;2024-01-11T04:36:28;58.15;;;25.65;;
27402;SDS011;14862;49.494;8.530;2024-01-11T04:38:54;63.73;;;26.47;;
27402;SDS011;14862;49.494;8.530;2024-01-11T04:41:19;60.97;;;26.80;;
27402;SDS011;14862;49.494;8.530;2024-01-11T04:43:44;57.15;;;25.20;;
27402;SDS011;14862;49.494;8.530;2024-01-11T04:46:27;53.47;;;25.33;;
27402;SDS011;14862;49.494;8.530;2024-01-11T04:48:52;54.00;;;23.75;;
27402;SDS011;14862;49.494;8.530;2024-01-11T04:51:19;56.55;;;23.75;;
27402;SDS011;14862;49.494;8.530;2024-01-11T04:53:44;50.25;;;25.83;;
27402;SDS011;14862;49.494;8.530;2024-01-11T04:56:12;58.67;;;26.27;;
27402;SDS011;14862;49.494;8.530;2024-01-11T04:58:39;55.08;;;26.27;;
27402;SDS011;14862;49.494;8.530;2024-01-11T05:01:07;54.58;;;24.92;;
27402;SDS011;14862;49.494;8.530;2024-01-11T05:03:36;52.55;;;24.63;;
27402;SDS011;14862;49.494;8.530;2024-01-11T05:06:01;55.67;;;26.55;;
27402;SDS011;14862;49.494;8.530;2024-01-11T05:08:26;54.15;;;25.30;;
27402;SDS011;14862;49.494;8.530;2024-01-11T05:10:52;58.53;;;26.42;;
27402;SDS011;14862;49.494;8.530;2024-01-11T05:13:18;57.05;;;24.70;;
27402;SDS011;14862;49.494;8.530;2024-01-11T05:15:43;54.00;;;24.73;;
27402;SDS011;14862;49.494;8.530;2024-01-11T05:18:09;57.50;;;26.80;;
27402;SDS011;14862;49.494;8.530;2024-01-11T05:20:34;61.25;;;26.55;;
27402;SDS011;14862;49.494;8.530;2024-01-11T05:22:59;64.20;;;28.88;;
27402;SDS011;14862;49.494;8.530;2024-01-11T05:25:25;55.60;;;26.63;;
27402;SDS011;14862;49.494;8.530;2024-01-11T05:27:51;57.47;;;26.92;;
27402;SDS011;14862;49.494;8.530;2024-01-11T05:30:16;51.07;;;25.10;;
27402;SDS011;14862;49.494;8.530;2024-01-11T05:32:41;62.47;;;26.85;;
27402;SDS011;14862;49.494;8.530;2024-01-11T05:35:06;60.17;;;26.27;;
27402;SDS011;14862;49.494;8.530;2024-01-11T05:37:32;57.67;;;27.48;;
27402;SDS011;14862;49.494;8.530;2024-01-11T05:39:57;62.53;;;28.90;;
27402;SDS011;14862;49.494;8.530;2024-01-11T05:42:23;59.27;;;27.97;;
27402;SDS011;14862;49.494;8.530;2024-01-11T05:44:48;57.60;;;27.30;;
27402;SDS011;14862;49.494;8.530;2024-01-11T05:47:13;64.38;;;27.65;;
27402;SDS011;14862;49.494;8.530;2024-01-11T05:49:38;60.50;;;28.63;;
27402;SDS011;14862;49.494;8.530;2024-01-11T05:52:03;60.28;;;28.40;;
27402;SDS011;14862;49.494;8.530;2024-01-11T05:54:29;59.28;;;27.50;;
27402;SDS011;14862;49.494;8.530;2024-01-11T05:56:55;60.60;;;27.87;;
27402;SDS011;14862;49.494;8.530;2024-01-11T05:59:24;67.38;;;29.50;;
27402;SDS011;14862;49.494;8.530;2024-01-11T06:01:49;58.07;;;27.43;;
27402;SDS011;14862;49.494;8.530;2024-01-11T06:04:14;68.47;;;29.65;;
27402;SDS011;14862;49.494;8.530;2024-01-11T06:06:40;61.15;;;28.25;;
27402;SDS011;14862;49.494;8.530;2024-01-11T06:09:05;57.35;;;29.48;;
27402;SDS011;14862;49.494;8.530;2024-01-11T06:11:30;64.00;;;25.58;;
27402;SDS011;14862;49.494;8.530;2024-01-11T06:13:55;66.95;;;27.77;;
27402;SDS011;14862;49.494;8.530;2024-01-11T06:16:21;63.07;;;27.37;;
27402;SDS011;14862;49.494;8.530;2024-01-11T06:18:46;69.40;;;30.17;;
27402;SDS011;14862;49.494;8.530;2024-01-11T06:21:11;56.25;;;26.40;;
27402;SDS011;14862;49.494;8.530;2024-01-11T06:23:36;61.90;;;28.17;;
27402;SDS011;14862;49.494;8.530;2024-01-11T06:26:02;61.28;;;28.95;;
27402;SDS011;14862;49.494;8.530;2024-01-11T06:28:28;62.75;;;28.67;;
27402;SDS011;14862;49.494;8.530;2024-01-11T06:30:53;61.47;;;27.65;;
27402;SDS011;14862;49.494;8.530;2024-01-11T06:33:18;62.38;;;28.02;;
27402;SDS011;14862;49.494;8.530;2024-01-11T06:35:45;64.88;;;28.13;;
27402;SDS011;14862;49.494;8.530;2024-01-11T06:38:10;61.25;;;28.85;;
27402;SDS011;14862;49.494;8.530;2024-01-11T06:40:35;61.88;;;28.25;;
27402;SDS011;14862;49.494;8.530;2024-01-11T06:43:00;71.97;;;29.83;;
27402;SDS011;14862;49.494;8.530;2024-01-11T06:45:26;69.13;;;29.13;;
27402;SDS011;14862;49.494;8.530;2024-01-11T06:47:51;57.95;;;29.20;;
27402;SDS011;14862;49.494;8.530;2024-01-11T06:50:16;62.85;;;28.60;;
27402;SDS011;14862;49.494;8.530;2024-01-11T06:52:41;61.55;;;28.52;;
27402;SDS011;14862;49.494;8.530;2024-01-11T06:55:07;70.57;;;30.73;;
27402;SDS011;14862;49.494;8.530;2024-01-11T06:57:32;63.45;;;29.20;;
27402;SDS011;14862;49.494;8.530;2024-01-11T06:59:57;67.47;;;29.60;;
27402;SDS011;14862;49.494;8.530;2024-01-11T07:02:22;67.57;;;32.28;;
27402;SDS011;14862;49.494;8.530;2024-01-11T07:04:48;68.10;;;30.75;;
27402;SDS011;14862;49.494;8.530;2024-01-11T07:07:13;64.45;;;30.13;;
27402;SDS011;14862;49.494;8.530;2024-01-11T07:09:38;68.20;;;29.02;;
27402;SDS011;14862;49.494;8.530;2024-01-11T07:12:04;67.78;;;30.58;;
27402;SDS011;14862;49.494;8.530;2024-01-11T07:14:29;77.35;;;31.17;;
27402;SDS011;14862;49.494;8.530;2024-01-11T07:16:55;74.03;;;32.78;;
27402;SDS011;14862;49.494;8.530;2024-01-11T07:19:20;78.68;;;31.77;;
27402;SDS011;14862;49.494;8.530;2024-01-11T07:21:45;69.38;;;30.63;;
27402;SDS011;14862;49.494;8.530;2024-01-11T07:24:10;72.03;;;32.47;;
27402;SDS011;14862;49.494;8.530;2024-01-11T07:26:35;82.80;;;33.00;;
27402;SDS011;14862;49.494;8.530;2024-01-11T07:29:01;71.85;;;31.73;;
27402;SDS011;14862;49.494;8.530;2024-01-11T07:31:26;72.03;;;31.77;;
27402;SDS011;14862;49.494;8.530;2024-01-11T07:33:51;74.30;;;33.83;;
27402;SDS011;14862;49.494;8.530;2024-01-11T07:36:16;73.83;;;34.33;;
27402;SDS011;14862;49.494;8.530;2024-01-11T07:38:42;72.75;;;33.13;;
27402;SDS011;14862;49.494;8.530;2024-01-11T07:41:07;70.85;;;32.28;;
27402;SDS011;14862;49.494;8.530;2024-01-11T07:43:32;79.43;;;33.15;;
27402;SDS011;14862;49.494;8.530;2024-01-11T07:46:00;74.80;;;30.58;;
27402;SDS011;14862;49.494;8.530;2024-01-11T07:48:25;68.90;;;31.25;;
27402;SDS011;14862;49.494;8.530;2024-01-11T07:50:51;73.68;;;30.33;;
27402;SDS011;14862;49.494;8.530;2024-01-11T07:53:16;72.35;;;31.67;;
27402;SDS011;14862;49.494;8.530;2024-01-11T07:55:42;66.30;;;30.08;;
27402;SDS011;14862;49.494;8.530;2024-01-11T07:58:07;59.22;;;29.73;;
27402;SDS011;14862;49.494;8.530;2024-01-11T08:00:32;57.15;;;28.00;;
27402;SDS011;14862;49.494;8.530;2024-01-11T08:02:58;62.17;;;30.17;;
27402;SDS011;14862;49.494;8.530;2024-01-11T08:05:23;61.80;;;28.92;;
27402;SDS011;14862;49.494;8.530;2024-01-11T08:07:50;66.97;;;29.27;;
27402;SDS011;14862;49.494;8.530;2024-01-11T08:10:15;62.22;;;30.17;;
27402;SDS011;14862;49.494;8.530;2024-01-11T08:12:40;59.60;;;29.70;;
27402;SDS011;14862;49.494;8.530;2024-01-11T08:15:05;64.35;;;30.85;;
27402;SDS011;14862;49.494;8.530;2024-01-11T08:17:31;54.65;;;28.70;;
27402;SDS011;14862;49.494;8.530;2024-01-11T08:19:56;62.35;;;29.27;;
27402;SDS011;14862;49.494;8.530;2024-01-11T08:22:21;54.20;;;27.98;;
27402;SDS011;14862;49.494;8.530;2024-01-11T08:24:46;59.38;;;30.88;;
27402;SDS011;14862;49.494;8.530;2024-01-11T08:27:12;58.05;;;29.85;;
27402;SDS011;14862;49.494;8.530;2024-01-11T08:29:38;55.58;;;29.00;;
27402;SDS011;14862;49.494;8.530;2024-01-11T08:32:03;54.03;;;27.07;;
27402;SDS011;14862;49.494;8.530;2024-01-11T08:34:29;56.03;;;29.45;;
27402;SDS011;14862;49.494;8.530;2024-01-11T08:36:54;55.70;;;30.88;;
27402;SDS011;14862;49.494;8.530;2024-01-11T08:39:19;52.40;;;29.65;;
27402;SDS011;14862;49.494;8.530;2024-01-11T08:41:46;56.25;;;30.60;;
27402;SDS011;14862;49.494;8.530;2024-01-11T08:44:11;58.00;;;31.38;;
27402;SDS011;14862;49.494;8.530;2024-01-11T08:46:36;54.53;;;29.57;;
27402;SDS011;14862;49.494;8.530;2024-01-11T08:49:03;50.42;;;29.23;;
27402;SDS011;14862;49.494;8.530;2024-01-11T08:51:28;50.63;;;28.60;;
27402;SDS011;14862;49.494;8.530;2024-01-11T08:53:54;54.03;;;30.48;;
27402;SDS011;14862;49.494;8.530;2024-01-11T08:56:19;55.70;;;30.07;;
27402;SDS011;14862;49.494;8.530;2024-01-11T08:58:44;53.90;;;31.13;;
27402;SDS011;14862;49.494;8.530;2024-01-11T09:01:10;46.92;;;29.45;;
27402;SDS011;14862;49.494;8.530;2024-01-11T09:03:35;49.90;;;28.48;;
27402;SDS011;14862;49.494;8.530;2024-01-11T09:06:01;51.43;;;30.20;;
27402;SDS011;14862;49.494;8.530;2024-01-11T09:08:26;53.17;;;28.95;;
27402;SDS011;14862;49.494;8.530;2024-01-11T09:10:51;50.33;;;29.30;;
27402;SDS011;14862;49.494;8.530;2024-01-11T09:13:16;49.57;;;29.53;;
27402;SDS011;14862;49.494;8.530;2024-01-11T09:15:41;53.55;;;29.92;;
27402;SDS011;14862;49.494;8.530;2024-01-11T09:18:07;44.58;;;27.90;;
27402;SDS011;14862;49.494;8.530;2024-01-11T09:20:32;45.42;;;28.08;;
27402;SDS011;14862;49.494;8.530;2024-01-11T09:22:58;45.53;;;27.42;;
27402;SDS011;14862;49.494;8.530;2024-01-11T09:25:23;47.13;;;27.50;;
27402;SDS011;14862;49.494;8.530;2024-01-11T09:27:49;45.33;;;27.52;;
27402;SDS011;14862;49.494;8.530;2024-01-11T09:30:14;47.13;;;29.88;;
27402;SDS011;14862;49.494;8.530;2024-01-11T09:32:39;47.38;;;29.65;;
27402;SDS011;14862;49.494;8.530;2024-01-11T09:35:05;47.57;;;28.47;;
27402;SDS011;14862;49.494;8.530;2024-01-11T09:37:30;47.58;;;29.35;;
27402;SDS011;14862;49.494;8.530;2024-01-11T09:39:56;49.67;;;29.73;;
27402;SDS011;14862;49.494;8.530;2024-01-11T09:42:21;51.65;;;30.77;;
27402;SDS011;14862;49.494;8.530;2024-01-11T09:44:47;49.90;;;30.57;;
27402;SDS011;14862;49.494;8.530;2024-01-11T09:47:12;55.95;;;32.33;;
27402;SDS011;14862;49.494;8.530;2024-01-11T09:49:38;51.33;;;31.58;;
27402;SDS011;14862;49.494;8.530;2024-01-11T09:52:05;57.78;;;31.13;;
27402;SDS011;14862;49.494;8.530;2024-01-11T09:54:31;53.88;;;31.00;;
27402;SDS011;14862;49.494;8.530;2024-01-11T09:56:59;59.35;;;31.27;;
27402;SDS011;14862;49.494;8.530;2024-01-11T09:59:26;59.60;;;31.95;;
27402;SDS011;14862;49.494;8.530;2024-01-11T10:01:51;62.50;;;31.25;;
27402;SDS011;14862;49.494;8.530;2024-01-11T10:04:17;65.00;;;31.85;;
27402;SDS011;14862;49.494;8.530;2024-01-11T10:06:42;62.05;;;31.85;;
27402;SDS011;14862;49.494;8.530;2024-01-11T10:09:08;57.00;;;29.63;;
27402;SDS011;14862;49.494;8.530;2024-01-11T10:11:33;59.80;;;29.63;;
27402;SDS011;14862;49.494;8.530;2024-01-11T10:13:59;61.67;;;30.13;;
27402;SDS011;14862;49.494;8.530;2024-01-11T10:16:26;60.75;;;31.05;;
27402;SDS011;14862;49.494;8.530;2024-01-11T10:18:55;62.25;;;31.05;;
27402;SDS011;14862;49.494;8.530;2024-01-11T10:21:20;57.60;;;29.60;;
27402;SDS011;14862;49.494;8.530;2024-01-11T10:23:45;60.40;;;28.83;;
27402;SDS011;14862;49.494;8.530;2024-01-11T10:26:11;57.35;;;29.80;;
27402;SDS011;14862;49.494;8.530;2024-01-11T10:28:36;54.80;;;28.38;;
27402;SDS011;14862;49.494;8.530;2024-01-11T10:31:03;58.28;;;27.73;;
27402;SDS011;14862;49.494;8.530;2024-01-11T10:33:28;56.70;;;29.10;;
27402;SDS011;14862;49.494;8.530;2024-01-11T10:35:53;61.97;;;27.45;;
27402;SDS011;14862;49.494;8.530;2024-01-11T10:38:19;54.85;;;28.10;;
27402;SDS011;14862;49.494;8.530;2024-01-11T10:40:46;57.40;;;28.10;;
27402;SDS011;14862;49.494;8.530;2024-01-11T10:43:11;55.40;;;28.33;;
27402;SDS011;14862;49.494;8.530;2024-01-11T10:45:38;56.47;;;27.67;;
27402;SDS011;14862;49.494;8.530;2024-01-11T10:48:06;61.05;;;29.27;;
27402;SDS011;14862;49.494;8.530;2024-01-11T10:50:34;62.58;;;30.67;;
27402;SDS011;14862;49.494;8.530;2024-01-11T10:55:33;58.58;;;28.48;;
27402;SDS011;14862;49.494;8.530;2024-01-11T10:58:00;67.20;;;31.15;;
27402;SDS011;14862;49.494;8.530;2024-01-11T11:00:25;57.70;;;29.83;;
27402;SDS011;14862;49.494;8.530;2024-01-11T11:02:52;63.75;;;31.25;;
27402;SDS011;14862;49.494;8.530;2024-01-11T11:05:18;60.65;;;30.90;;
27402;SDS011;14862;49.494;8.530;2024-01-11T11:07:45;64.68;;;30.98;;
27402;SDS011;14862;49.494;8.530;2024-01-11T11:10:11;59.25;;;30.15;;
27402;SDS011;14862;49.494;8.530;2024-01-11T11:12:37;59.25;;;30.50;;
27402;SDS011;14862;49.494;8.530;2024-01-11T11:15:02;65.40;;;31.25;;
27402;SDS011;14862;49.494;8.530;2024-01-11T11:17:28;59.38;;;31.25;;
27402;SDS011;14862;49.494;8.530;2024-01-11T11:19:54;64.28;;;31.70;;
27402;SDS011;14862;49.494;8.530;2024-01-11T11:22:19;68.35;;;33.10;;
27402;SDS011;14862;49.494;8.530;2024-01-11T11:24:45;66.60;;;33.72;;
27402;SDS011;14862;49.494;8.530;2024-01-11T11:27:13;67.53;;;31.10;;
27402;SDS011;14862;49.494;8.530;2024-01-11T11:29:39;62.25;;;32.25;;
27402;SDS011;14862;49.494;8.530;2024-01-11T11:32:05;70.20;;;33.72;;
27402;SDS011;14862;49.494;8.530;2024-01-11T11:34:39;61.28;;;31.85;;
27402;SDS011;14862;49.494;8.530;2024-01-11T11:37:05;67.65;;;31.65;;
27402;SDS011;14862;49.494;8.530;2024-01-11T11:39:31;59.58;;;30.80;;
27402;SDS011;14862;49.494;8.530;2024-01-11T11:41:56;69.47;;;32.83;;
27402;SDS011;14862;49.494;8.530;2024-01-11T11:44:23;64.85;;;33.08;;
27402;SDS011;14862;49.494;8.530;2024-01-11T11:46:48;60.08;;;31.98;;
27402;SDS011;14862;49.494;8.530;2024-01-11T11:49:14;68.60;;;34.47;;
27402;SDS011;14862;49.494;8.530;2024-01-11T11:51:39;65.20;;;32.30;;
27402;SDS011;14862;49.494;8.530;2024-01-11T11:54:06;63.88;;;33.28;;
27402;SDS011;14862;49.494;8.530;2024-01-11T11:56:33;63.58;;;32.53;;
27402;SDS011;14862;49.494;8.530;2024-01-11T11:58:59;64.97;;;32.13;;
27402;SDS011;14862;49.494;8.530;2024-01-11T12:01:25;69.20;;;31.65;;
27402;SDS011;14862;49.494;8.530;2024-01-11T12:03:50;68.00;;;33.10;;
27402;SDS011;14862;49.494;8.530;2024-01-11T12:06:16;58.97;;;31.10;;
27402;SDS011;14862;49.494;8.530;2024-01-11T12:08:42;64.05;;;32.28;;
27402;SDS011;14862;49.494;8.530;2024-01-11T12:11:08;63.28;;;31.63;;
27402;SDS011;14862;49.494;8.530;2024-01-11T12:13:33;63.40;;;30.88;;
27402;SDS011;14862;49.494;8.530;2024-01-11T12:15:59;67.07;;;31.75;;
27402;SDS011;14862;49.494;8.530;2024-01-11T12:18:24;62.93;;;32.37;;
27402;SDS011;14862;49.494;8.530;2024-01-11T12:20:49;67.75;;;33.17;;
27402;SDS011;14862;49.494;8.530;2024-01-11T12:23:17;59.03;;;31.10;;
27402;SDS011;14862;49.494;8.530;2024-01-11T12:25:43;62.22;;;30.92;;
27402;SDS011;14862;49.494;8.530;2024-01-11T12:28:09;64.00;;;30.98;;
27402;SDS011;14862;49.494;8.530;2024-01-11T12:30:34;64.90;;;31.50;;
27402;SDS011;14862;49.494;8.530;2024-01-11T12:33:00;62.57;;;32.17;;
27402;SDS011;14862;49.494;8.530;2024-01-11T12:35:28;63.47;;;30.58;;
27402;SDS011;14862;49.494;8.530;2024-01-11T12:40:19;71.65;;;31.30;;
27402;SDS011;14862;49.494;8.530;2024-01-11T12:42:44;70.40;;;30.70;;
27402;SDS011;14862;49.494;8.530;2024-01-11T12:45:09;62.72;;;31.88;;
27402;SDS011;14862;49.494;8.530;2024-01-11T12:47:35;67.22;;;31.08;;
27402;SDS011;14862;49.494;8.530;2024-01-11T12:50:00;63.78;;;30.45;;
27402;SDS011;14862;49.494;8.530;2024-01-11T12:52:26;64.78;;;31.15;;
27402;SDS011;14862;49.494;8.530;2024-01-11T12:54:52;59.83;;;31.17;;
27402;SDS011;14862;49.494;8.530;2024-01-11T12:57:21;57.83;;;29.10;;
27402;SDS011;14862;49.494;8.530;2024-01-11T12:59:49;58.90;;;30.77;;
27402;SDS011;14862;49.494;8.530;2024-01-11T13:02:15;54.75;;;28.70;;
27402;SDS011;14862;49.494;8.530;2024-01-11T13:04:42;63.33;;;32.55;;
27402;SDS011;14862;49.494;8.530;2024-01-11T13:07:09;58.15;;;31.00;;
27402;SDS011;14862;49.494;8.530;2024-01-11T13:09:34;58.72;;;27.95;;
27402;SDS011;14862;49.494;8.530;2024-01-11T13:11:59;65.18;;;31.02;;
27402;SDS011;14862;49.494;8.530;2024-01-11T13:14:25;63.00;;;31.40;;
27402;SDS011;14862;49.494;8.530;2024-01-11T13:16:50;58.08;;;30.15;;
27402;SDS011;14862;49.494;8.530;2024-01-11T13:19:16;63.88;;;31.13;;
27402;SDS011;14862;49.494;8.530;2024-01-11T13:21:41;61.95;;;30.65;;
27402;SDS011;14862;49.494;8.530;2024-01-11T13:24:06;59.88;;;30.38;;
27402;SDS011;14862;49.494;8.530;2024-01-11T13:26:35;59.13;;;30.05;;
27402;SDS011;14862;49.494;8.530;2024-01-11T13:29:01;67.72;;;31.63;;
27402;SDS011;14862;49.494;8.530;2024-01-11T13:31:26;66.35;;;31.55;;
27402;SDS011;14862;49.494;8.530;2024-01-11T13:33:52;58.70;;;29.65;;
27402;SDS011;14862;49.494;8.530;2024-01-11T13:36:17;58.53;;;28.92;;
27402;SDS011;14862;49.494;8.530;2024-01-11T13:38:43;67.07;;;32.22;;
27402;SDS011;14862;49.494;8.530;2024-01-11T13:41:08;60.70;;;30.60;;
27402;SDS011;14862;49.494;8.530;2024-01-11T13:43:33;64.85;;;32.38;;
27402;SDS011;14862;49.494;8.530;2024-01-11T13:46:00;66.18;;;30.83;;
27402;SDS011;14862;49.494;8.530;2024-01-11T13:48:25;62.75;;;30.73;;
27402;SDS011;14862;49.494;8.530;2024-01-11T13:50:50;69.25;;;33.15;;
27402;SDS011;14862;49.494;8.530;2024-01-11T13:53:15;60.78;;;30.08;;
27402;SDS011;14862;49.494;8.530;2024-01-11T13:55:41;68.23;;;31.37;;
27402;SDS011;14862;49.494;8.530;2024-01-11T13:58:06;73.97;;;32.47;;
27402;SDS011;14862;49.494;8.530;2024-01-11T14:00:31;61.08;;;31.23;;
27402;SDS011;14862;49.494;8.530;2024-01-11T14:02:56;60.20;;;31.33;;
27402;SDS011;14862;49.494;8.530;2024-01-11T14:05:22;62.70;;;29.63;;
27402;SDS011;14862;49.494;8.530;2024-01-11T14:07:47;56.20;;;29.03;;
27402;SDS011;14862;49.494;8.530;2024-01-11T14:10:13;58.80;;;29.98;;
27402;SDS011;14862;49.494;8.530;2024-01-11T14:12:39;62.53;;;30.58;;
27402;SDS011;14862;49.494;8.530;2024-01-11T14:15:04;60.13;;;29.83;;